Time;durP1;ratioP1;P1;durP2;ratioP2;P2;SDS_P1;SDS_P2;PMS_P1;PMS_P2;Temp;Humidity;BMP_temperature;BMP_pressure;BME280_temperature;BME280_humidity;BME280_pressure;Samples;Min_cycle;Max_cycle;Signal;HPM_P1;HPM_P2
2021/07/02 19:38:57;;;;;;;2.47;1.90;;;22.50;85.40;;;;;;5090571;28;20113;-74
2021/07/02 19:41:23;;;;;;;2.10;2.00;;;22.40;84.50;;;;;;5089154;28;20043;-75
2021/07/02 19:43:49;;;;;;;2.30;2.10;;;22.30;84.30;;;;;;5072189;28;20036;-75
2021/07/02 19:46:15;;;;;;;2.78;2.08;;;22.40;84.10;;;;;;5088683;28;20102;-76
2021/07/02 19:48:42;;;;;;;2.30;2.10;;;22.30;84.00;;;;;;5083301;28;20521;-77
2021/07/02 19:54:19;;;;;;;2.63;1.73;;;22.50;83.30;;;;;;5025575;28;20064;-77
2021/07/02 19:56:46;;;;;;;2.05;1.95;;;22.60;83.10;;;;;;5049897;28;20531;-77
2021/07/02 19:59:12;;;;;;;3.42;2.42;;;22.50;83.00;;;;;;5050023;28;20029;-76
2021/07/02 20:01:38;;;;;;;3.05;2.03;;;22.40;83.50;;;;;;5049759;28;20041;-76
2021/07/02 20:04:04;;;;;;;4.88;2.60;;;22.50;83.30;;;;;;5048438;28;20043;-79
2021/07/02 20:06:30;;;;;;;2.58;2.38;;;22.60;83.40;;;;;;5049711;28;20124;-76
2021/07/02 20:08:59;;;;;;;5.05;3.05;;;22.60;83.30;;;;;;5061366;28;20075;-77
2021/07/02 20:11:25;;;;;;;2.75;2.50;;;22.60;83.50;;;;;;5078005;28;20036;-77
2021/07/02 20:13:51;;;;;;;3.28;2.83;;;22.70;83.10;;;;;;5078437;28;20032;-77
2021/07/02 20:16:19;;;;;;;3.03;2.38;;;22.60;82.80;;;;;;5088455;28;20126;-76
2021/07/02 20:18:45;;;;;;;3.38;2.42;;;22.70;82.70;;;;;;5088171;28;20149;-76
2021/07/02 20:21:11;;;;;;;2.55;2.33;;;22.40;83.00;;;;;;5088491;28;20028;-75
2021/07/02 20:23:37;;;;;;;3.78;2.40;;;22.60;82.80;;;;;;5085063;28;20157;-83
2021/07/02 20:26:03;;;;;;;3.60;2.60;;;22.20;83.40;;;;;;5068937;28;20393;-82
2021/07/02 20:28:29;;;;;;;5.63;2.47;;;22.00;84.60;;;;;;5076138;28;20037;-80
2021/07/02 20:30:55;;;;;;;3.30;2.90;;;22.20;84.10;;;;;;5059773;28;20032;-82
2021/07/02 20:33:21;;;;;;;5.43;2.88;;;22.00;84.50;;;;;;5051547;28;20068;-79
2021/07/02 20:35:47;;;;;;;3.08;2.67;;;22.10;84.40;;;;;;5069169;28;20048;-78
2021/07/02 20:38:13;;;;;;;5.00;3.30;;;22.20;83.60;;;;;;5087750;28;20048;-80
2021/07/02 20:40:43;;;;;;;4.63;2.97;;;22.10;83.90;;;;;;5087663;28;20078;-79
2021/07/02 20:43:09;;;;;;;3.33;2.78;;;22.30;83.70;;;;;;5087745;28;20090;-79
2021/07/02 20:45:35;;;;;;;6.25;3.35;;;22.10;84.10;;;;;;5087742;28;20025;-79
2021/07/02 20:48:01;;;;;;;4.22;2.72;;;22.20;83.60;;;;;;5087735;28;20040;-79
2021/07/02 20:50:27;;;;;;;3.33;3.03;;;22.00;84.10;;;;;;5064218;28;20043;-78
2021/07/02 20:52:53;;;;;;;4.15;2.92;;;21.80;84.50;;;;;;5053890;28;20124;-79
2021/07/02 20:55:19;;;;;;;3.38;2.92;;;21.30;86.10;;;;;;5055307;28;20553;-79
2021/07/02 20:57:45;;;;;;;3.10;2.88;;;21.60;85.70;;;;;;5070840;28;20049;-79
2021/07/02 21:00:12;;;;;;;3.30;3.00;;;21.20;86.60;;;;;;5055744;28;20047;-78
2021/07/02 21:02:38;;;;;;;6.22;2.65;;;21.10;87.10;;;;;;5053908;28;20033;-80
2021/07/02 21:05:05;;;;;;;3.40;3.10;;;21.40;86.50;;;;;;5055368;28;20119;-79
2021/07/02 21:07:30;;;;;;;5.13;3.28;;;21.30;86.50;;;;;;5054080;28;20037;-80
2021/07/02 21:09:58;;;;;;;4.53;3.38;;;21.30;86.10;;;;;;5055564;28;20048;-79
2021/07/02 21:12:24;;;;;;;3.47;3.15;;;21.50;85.90;;;;;;5054056;28;20127;-79
2021/07/02 21:14:50;;;;;;;3.80;3.00;;;21.70;85.10;;;;;;5055073;28;20103;-79
2021/07/02 21:17:15;;;;;;;4.10;3.70;;;21.80;84.80;;;;;;5070472;28;20036;-79
2021/07/02 21:19:41;;;;;;;4.95;3.60;;;21.60;84.90;;;;;;5053751;28;20072;-78
2021/07/02 21:22:07;;;;;;;3.88;3.45;;;21.40;85.40;;;;;;5055009;28;20060;-80
2021/07/02 21:24:33;;;;;;;5.40;3.05;;;21.60;84.80;;;;;;5053339;28;20021;-78
2021/07/02 21:27:03;;;;;;;4.63;4.22;;;21.40;85.30;;;;;;5054324;28;20122;-78
2021/07/02 21:29:29;;;;;;;4.20;3.80;;;21.30;85.80;;;;;;5054536;28;20045;-78
2021/07/02 21:31:55;;;;;;;4.25;3.83;;;21.50;85.00;;;;;;5053339;28;20025;-78
2021/07/02 21:34:21;;;;;;;4.07;3.50;;;21.50;85.10;;;;;;5054724;28;20059;-78
2021/07/02 21:36:47;;;;;;;5.18;3.60;;;21.50;85.00;;;;;;5036611;28;20110;-78
2021/07/02 21:39:13;;;;;;;5.35;3.92;;;21.50;85.40;;;;;;5036861;28;20087;-79
2021/07/02 21:41:39;;;;;;;3.60;3.30;;;21.50;85.00;;;;;;5054665;28;20040;-75
2021/07/02 21:44:05;;;;;;;5.22;3.55;;;21.40;85.10;;;;;;5036800;28;20490;-80
2021/07/02 21:46:31;;;;;;;8.77;4.10;;;21.40;85.10;;;;;;5054454;28;20040;-79
2021/07/02 21:48:57;;;;;;;4.25;3.28;;;21.50;85.00;;;;;;5053311;28;20033;-79
2021/07/02 21:51:23;;;;;;;4.55;4.15;;;21.40;85.20;;;;;;5061426;28;20047;-82
2021/07/02 21:53:49;;;;;;;5.43;3.63;;;21.20;86.10;;;;;;5068930;28;20044;-80
2021/07/02 21:56:15;;;;;;;7.05;4.00;;;21.20;86.10;;;;;;5073508;28;20435;-78
